Granada, Colorado
Current Conditions -  °F | °C
As of 11:53 AM on Friday 21 Nov 2014 (Local Time) from KLAA Reporting Station
Clear Clear  
Wind Chill: 47°   Ceiling: Unl
Heat Index: 49°   Visibility: 10mi
Dew Point: 30°   Wind: 6mph
Humidity: 48%   Direction: 210°SSW
Pressure: 29.94"   Gusts: NA
Location:  38.06°N, 102.31°W
Report Text: KLAA 211853Z AUTO 21005KT 10SM CLR 09/M01 A2994 RMK AO2 SLP139 T00941011
Loading
Personal Weather Stations






























Interactive Weather Map New forecast layout! Learn more

10-Day Weather Forecast

Advertisements
Track Severe Weather on mobile